createdAt,value
2018-08-22T00:02:21.913Z,99.90
2018-08-22T00:04:51.433Z,99.90
2018-08-22T00:07:24.315Z,99.90
2018-08-22T00:09:53.446Z,99.90
2018-08-22T00:12:26.400Z,99.90
2018-08-22T00:14:55.508Z,99.90
2018-08-22T00:17:28.427Z,99.90
2018-08-22T00:19:57.914Z,99.90
2018-08-22T00:22:31.001Z,99.90
2018-08-22T00:25:00.215Z,99.90
2018-08-22T00:27:33.603Z,99.90
2018-08-22T00:30:02.904Z,99.90
2018-08-22T00:32:36.256Z,99.90
2018-08-22T00:35:05.581Z,99.90
2018-08-22T00:37:38.748Z,99.90
2018-08-22T00:40:08.265Z,99.90
2018-08-22T00:42:41.259Z,99.90
2018-08-22T00:45:10.499Z,99.90
2018-08-22T00:47:42.750Z,99.90
2018-08-22T00:50:11.963Z,99.90
2018-08-22T00:52:48.667Z,99.90
2018-08-22T00:55:17.839Z,99.90
2018-08-22T00:57:48.868Z,99.90
2018-08-22T01:00:18.130Z,99.90
2018-08-22T01:02:50.960Z,99.90
2018-08-22T01:05:20.338Z,99.90
2018-08-22T01:07:56.983Z,99.90
2018-08-22T01:10:26.398Z,99.90
2018-08-22T01:12:56.580Z,99.90
2018-08-22T01:15:25.746Z,99.90
2018-08-22T01:18:02.757Z,99.90
2018-08-22T01:20:31.950Z,99.90
2018-08-22T01:23:02.313Z,99.90
2018-08-22T01:25:31.923Z,99.90
2018-08-22T01:28:05.005Z,99.90
2018-08-22T01:30:34.172Z,99.90
2018-08-22T01:33:10.598Z,99.90
2018-08-22T01:35:39.788Z,99.90
2018-08-22T01:38:09.985Z,99.90
2018-08-22T01:40:39.437Z,99.90
2018-08-22T01:43:14.644Z,99.90
2018-08-22T01:45:43.790Z,99.90
2018-08-22T01:48:16.422Z,99.90
2018-08-22T01:50:45.534Z,99.90
2018-08-22T01:53:18.509Z,99.90
2018-08-22T01:55:47.905Z,99.90
2018-08-22T01:58:20.929Z,99.90
2018-08-22T02:00:50.116Z,99.90
2018-08-22T02:03:22.793Z,99.90
2018-08-22T02:05:52.398Z,99.90
2018-08-22T02:08:26.087Z,99.90
2018-08-22T02:10:55.570Z,99.90
2018-08-22T02:13:28.989Z,99.90
2018-08-22T02:15:58.506Z,99.90
2018-08-22T02:18:29.918Z,99.90
2018-08-22T02:20:59.684Z,99.90
2018-08-22T02:23:33.099Z,99.90
2018-08-22T02:26:02.633Z,99.90
2018-08-22T02:28:35.522Z,99.90
2018-08-22T02:31:05.203Z,99.90
2018-08-22T02:33:37.667Z,99.90
2018-08-22T02:36:07.270Z,99.90
2018-08-22T02:38:40.041Z,99.90
2018-08-22T02:41:09.805Z,99.90
2018-08-22T02:43:42.523Z,99.90
2018-08-22T02:46:11.991Z,99.90
2018-08-22T02:48:49.155Z,99.90
2018-08-22T02:51:18.633Z,99.90
2018-08-22T02:53:48.137Z,99.90
2018-08-22T02:56:17.666Z,99.90
2018-08-22T02:58:49.279Z,99.90
2018-08-22T03:01:18.819Z,99.90
2018-08-22T03:03:52.023Z,99.90
2018-08-22T03:06:21.816Z,99.90
2018-08-22T03:08:54.617Z,99.90
2018-08-22T03:11:24.133Z,99.90
2018-08-22T03:13:58.102Z,99.90
2018-08-22T03:16:27.823Z,99.90
2018-08-22T03:19:01.015Z,99.90
2018-08-22T03:21:30.817Z,99.90
2018-08-22T03:24:04.028Z,99.90
2018-08-22T03:26:33.586Z,99.90
2018-08-22T03:29:06.414Z,99.90
2018-08-22T03:31:36.007Z,99.90
2018-08-22T03:34:09.021Z,99.90
2018-08-22T03:36:38.502Z,99.90
2018-08-22T03:39:12.312Z,99.90
2018-08-22T03:41:42.078Z,99.90
2018-08-22T03:44:14.926Z,99.90
2018-08-22T03:46:44.423Z,99.90
2018-08-22T03:49:16.821Z,99.90
2018-08-22T03:51:46.293Z,99.90
2018-08-22T03:54:19.169Z,99.90
2018-08-22T03:56:49.021Z,99.90
2018-08-22T03:59:22.034Z,99.90
2018-08-22T04:01:51.572Z,99.90
2018-08-22T04:04:24.404Z,99.90
2018-08-22T04:06:53.999Z,99.90
2018-08-22T04:09:26.069Z,99.90
2018-08-22T04:11:55.594Z,99.90
2018-08-22T04:14:28.786Z,99.90
2018-08-22T04:16:58.364Z,99.90
2018-08-22T04:19:31.505Z,99.90
2018-08-22T04:22:01.376Z,99.90
2018-08-22T04:24:34.094Z,99.90
2018-08-22T04:27:03.402Z,99.90
2018-08-22T04:29:35.813Z,99.90
2018-08-22T04:32:05.532Z,99.90
2018-08-22T04:34:36.782Z,99.90
2018-08-22T04:37:05.911Z,99.90
2018-08-22T04:39:38.714Z,99.90
2018-08-22T04:42:07.857Z,99.90
2018-08-22T04:44:40.789Z,99.90
2018-08-22T04:47:10.176Z,99.90
2018-08-22T04:49:46.836Z,99.90
2018-08-22T04:52:16.322Z,99.90
2018-08-22T04:54:46.696Z,99.90
2018-08-22T04:57:15.791Z,99.90
2018-08-22T04:59:53.450Z,99.90
2018-08-22T05:02:22.638Z,99.90
2018-08-22T05:04:51.752Z,99.90
2018-08-22T05:07:21.515Z,99.90
2018-08-22T05:09:54.451Z,99.90
2018-08-22T05:12:23.618Z,99.90
2018-08-22T05:15:00.612Z,99.90
2018-08-22T05:17:29.792Z,99.90
2018-08-22T05:20:00.378Z,99.90
2018-08-22T05:22:29.504Z,99.90
2018-08-22T05:25:07.023Z,99.90
2018-08-22T05:27:36.560Z,99.90
2018-08-22T05:30:06.300Z,99.90
2018-08-22T05:32:35.424Z,99.90
2018-08-22T05:35:09.245Z,99.90
2018-08-22T05:37:38.630Z,99.90
2018-08-22T05:40:15.564Z,99.90
2018-08-22T05:42:44.728Z,99.90
2018-08-22T05:45:14.352Z,99.90
2018-08-22T05:47:43.761Z,99.90
2018-08-22T05:50:20.490Z,99.90
2018-08-22T05:52:50.502Z,99.90
2018-08-22T05:55:19.892Z,99.90
2018-08-22T05:57:49.056Z,99.90
2018-08-22T06:00:22.134Z,99.90
2018-08-22T06:02:51.401Z,99.90
2018-08-22T06:05:24.061Z,99.90
2018-08-22T06:07:54.634Z,99.90
2018-08-22T06:10:27.717Z,99.90
2018-08-22T06:12:56.910Z,99.90
2018-08-22T06:15:28.416Z,99.90
2018-08-22T06:17:57.800Z,99.90
2018-08-22T06:20:34.443Z,99.90
2018-08-22T06:23:03.996Z,99.90
2018-08-22T06:25:33.925Z,99.90
2018-08-22T06:28:03.129Z,99.90
2018-08-22T06:30:36.458Z,99.90
2018-08-22T06:33:05.813Z,99.90
2018-08-22T06:35:38.333Z,99.90
2018-08-22T06:38:08.800Z,99.90
2018-08-22T06:40:42.045Z,99.90
2018-08-22T06:43:11.243Z,99.90
2018-08-22T06:45:42.864Z,99.90
2018-08-22T06:48:12.212Z,99.90
2018-08-22T06:50:49.918Z,99.90
2018-08-22T06:53:19.810Z,99.90
2018-08-22T06:55:49.044Z,99.90
2018-08-22T06:58:18.204Z,99.90
2018-08-22T07:00:50.507Z,99.90
2018-08-22T07:03:20.031Z,99.90
2018-08-22T07:05:57.592Z,99.90
2018-08-22T07:08:27.888Z,99.90
2018-08-22T07:10:59.398Z,99.90
2018-08-22T07:13:29.157Z,99.90
2018-08-22T07:16:00.871Z,99.90
2018-08-22T07:18:30.483Z,99.90
2018-08-22T07:21:03.476Z,99.90
2018-08-22T07:23:33.112Z,99.90
2018-08-22T07:26:06.270Z,99.90
2018-08-22T07:28:35.517Z,99.90
2018-08-22T07:31:07.951Z,99.90
2018-08-22T07:33:37.268Z,99.90
2018-08-22T07:36:09.620Z,99.90
2018-08-22T07:38:39.184Z,99.90
2018-08-22T07:41:16.253Z,99.90
2018-08-22T07:43:45.652Z,99.90
2018-08-22T07:46:17.840Z,99.90
2018-08-22T07:48:47.065Z,99.90
2018-08-22T07:51:18.895Z,99.90
2018-08-22T07:53:48.658Z,99.90
2018-08-22T07:56:22.341Z,99.90
2018-08-22T07:59:03.830Z,99.90
2018-08-22T08:01:33.078Z,99.90
2018-08-22T08:04:02.628Z,99.90
2018-08-22T08:06:31.867Z,99.90
2018-08-22T08:09:01.116Z,99.90
2018-08-22T08:11:31.907Z,99.90
2018-08-22T08:14:01.143Z,99.90
2018-08-22T08:16:30.412Z,99.90
2018-08-22T08:18:59.926Z,99.90
2018-08-22T08:21:36.584Z,99.90
2018-08-22T08:24:06.148Z,99.90
2018-08-22T08:26:35.343Z,99.90
2018-08-22T08:29:04.662Z,99.90
2018-08-22T08:31:37.352Z,99.90
2018-08-22T08:34:06.569Z,99.90
2018-08-22T08:36:39.715Z,99.90
2018-08-22T08:39:11.556Z,99.90
2018-08-22T08:41:41.239Z,99.90
2018-08-22T08:44:10.506Z,99.90
2018-08-22T08:46:42.857Z,99.90
2018-08-22T08:49:12.080Z,99.90
2018-08-22T08:51:58.124Z,99.90
2018-08-22T08:54:27.577Z,99.90
2018-08-22T08:56:56.914Z,99.90
2018-08-22T08:59:26.356Z,99.90
2018-08-22T09:01:55.589Z,99.90
2018-08-22T09:04:24.820Z,99.90
2018-08-22T09:06:54.762Z,99.90
2018-08-22T09:09:23.929Z,99.90
2018-08-22T09:12:01.307Z,99.90
2018-08-22T09:14:30.914Z,99.90
2018-08-22T09:17:00.536Z,99.90
2018-08-22T09:19:29.759Z,99.90
2018-08-22T09:22:04.011Z,99.90
2018-08-22T09:24:33.194Z,99.90
2018-08-22T09:27:10.890Z,99.90
2018-08-22T09:29:40.385Z,99.90
2018-08-22T09:32:10.137Z,99.90
2018-08-22T09:34:41.505Z,99.90
2018-08-22T09:37:14.397Z,99.90
2018-08-22T09:39:43.637Z,99.90
2018-08-22T09:42:15.981Z,99.90
2018-08-22T09:44:45.540Z,99.90
2018-08-22T09:47:18.445Z,99.90
2018-08-22T09:49:47.753Z,99.90
2018-08-22T09:52:20.098Z,99.90
2018-08-22T09:55:01.376Z,99.90
2018-08-22T09:57:31.586Z,99.00
2018-08-22T10:00:00.932Z,99.10
2018-08-22T10:02:30.332Z,99.20
2018-08-22T10:05:00.819Z,98.30
2018-08-22T10:07:32.245Z,98.80
2018-08-22T10:10:01.710Z,98.30
2018-08-22T10:12:31.225Z,97.50
2018-08-22T10:15:00.426Z,99.90
2018-08-22T10:17:32.795Z,98.50
2018-08-22T10:20:02.292Z,97.30
2018-08-22T10:22:35.300Z,97.70
2018-08-22T10:25:04.617Z,97.10
2018-08-22T10:27:37.459Z,98.30
2018-08-22T10:30:07.270Z,97.60
2018-08-22T10:32:42.339Z,96.30
2018-08-22T10:35:11.609Z,98.20
2018-08-22T10:37:42.475Z,98.10
2018-08-22T10:40:12.372Z,96.50
2018-08-22T10:42:46.624Z,96.80
2018-08-22T10:45:16.043Z,97.20
2018-08-22T10:47:47.394Z,98.40
2018-08-22T10:50:16.748Z,98.20
2018-08-22T10:52:49.000Z,96.30
2018-08-22T10:55:18.478Z,95.30
2018-08-22T10:57:51.480Z,95.70
2018-08-22T11:00:20.704Z,96.70
2018-08-22T11:02:53.927Z,95.90
2018-08-22T11:05:23.407Z,95.80
2018-08-22T11:07:56.719Z,95.90
2018-08-22T11:10:25.997Z,95.20
2018-08-22T11:12:59.587Z,95.80
2018-08-22T11:15:28.991Z,95.00
2018-08-22T11:18:05.729Z,94.10
2018-08-22T11:20:39.359Z,93.80
2018-08-22T11:23:19.449Z,94.90
2018-08-22T11:26:00.187Z,95.70
2018-08-22T11:28:40.149Z,94.30
2018-08-22T11:31:20.490Z,93.10
2018-08-22T11:34:00.581Z,94.60
2018-08-22T11:36:28.599Z,92.30
2018-08-22T11:38:57.800Z,93.00
2018-08-22T11:41:26.964Z,93.90
2018-08-22T11:43:56.582Z,92.90
2018-08-22T11:46:25.789Z,93.80
2018-08-22T11:48:54.985Z,94.80
2018-08-22T11:51:24.271Z,93.70
2018-08-22T11:53:53.578Z,91.90
2018-08-22T11:56:23.357Z,92.50
2018-08-22T11:58:52.684Z,92.10
2018-08-22T12:01:25.456Z,93.10
2018-08-22T12:03:54.664Z,92.50
2018-08-22T12:06:25.808Z,95.00
2018-08-22T12:08:54.975Z,92.40
2018-08-22T12:11:28.249Z,94.10
2018-08-22T12:13:57.705Z,93.80
2018-08-22T12:16:30.840Z,92.90
2018-08-22T12:19:00.054Z,94.50
2018-08-22T12:21:36.681Z,92.40
2018-08-22T12:24:06.376Z,92.40
2018-08-22T12:26:36.092Z,93.60
2018-08-22T12:29:05.689Z,93.30
2018-08-22T12:31:38.594Z,92.70
2018-08-22T12:34:07.827Z,95.50
2018-08-22T12:36:40.239Z,92.50
2018-08-22T12:39:09.737Z,92.40
2018-08-22T12:41:42.650Z,92.90
2018-08-22T12:44:12.022Z,93.00
2018-08-22T12:46:48.496Z,92.40
2018-08-22T12:49:17.755Z,94.00
2018-08-22T12:51:47.018Z,93.70
2018-08-22T12:54:16.326Z,93.90
2018-08-22T12:56:52.830Z,92.30
2018-08-22T12:59:22.100Z,92.80
2018-08-22T13:01:53.603Z,93.10
2018-08-22T13:04:22.850Z,92.70
2018-08-22T13:06:55.922Z,94.10
2018-08-22T13:09:25.454Z,95.60
2018-08-22T13:11:57.786Z,92.70
2018-08-22T13:14:27.028Z,92.40
2018-08-22T13:17:01.788Z,92.90
2018-08-22T13:19:30.919Z,94.60
2018-08-22T13:22:04.078Z,93.50
2018-08-22T13:24:33.563Z,93.40
2018-08-22T13:27:08.106Z,92.40
2018-08-22T13:29:37.320Z,94.00
2018-08-22T13:32:10.426Z,93.90
2018-08-22T13:34:40.160Z,93.00
2018-08-22T13:37:13.467Z,94.30
2018-08-22T13:39:42.710Z,93.30
2018-08-22T13:42:15.999Z,93.40
2018-08-22T13:44:45.453Z,93.20
2018-08-22T13:47:18.223Z,93.00
2018-08-22T13:49:47.420Z,93.90
2018-08-22T13:52:20.012Z,94.10
2018-08-22T13:54:49.511Z,94.70
2018-08-22T13:57:22.338Z,94.50
2018-08-22T13:59:51.563Z,95.20
2018-08-22T14:02:24.400Z,94.10
2018-08-22T14:04:53.550Z,96.00
2018-08-22T14:07:30.022Z,94.20
2018-08-22T14:09:59.456Z,93.50
2018-08-22T14:12:28.711Z,94.30
2018-08-22T14:14:58.030Z,94.50
2018-08-22T14:17:34.597Z,95.10
2018-08-22T14:20:03.980Z,96.30
2018-08-22T14:22:33.284Z,93.90
2018-08-22T14:25:02.961Z,94.40
2018-08-22T14:27:35.902Z,94.90
2018-08-22T14:30:06.155Z,94.30
2018-08-22T14:32:37.657Z,94.10
2018-08-22T14:35:07.117Z,94.40
2018-08-22T14:37:40.370Z,94.30
2018-08-22T14:40:09.969Z,94.50
2018-08-22T14:42:43.557Z,95.90
2018-08-22T14:45:12.796Z,94.90
2018-08-22T14:47:45.587Z,94.90
2018-08-22T14:50:15.261Z,94.70
2018-08-22T14:52:51.953Z,95.40
2018-08-22T14:55:21.178Z,95.90
2018-08-22T14:57:50.974Z,95.30
2018-08-22T15:00:20.181Z,97.30
2018-08-22T15:02:53.613Z,95.20
2018-08-22T15:05:22.749Z,95.70
2018-08-22T15:07:55.936Z,95.60
2018-08-22T15:10:25.984Z,95.40
2018-08-22T15:13:07.854Z,95.50
2018-08-22T15:15:37.442Z,95.40
2018-08-22T15:18:07.315Z,96.10
2018-08-22T15:20:36.558Z,95.60
2018-08-22T15:23:06.103Z,95.50
2018-08-22T15:25:36.580Z,95.10
2018-08-22T15:28:07.644Z,95.40
2018-08-22T15:30:37.764Z,95.50
2018-08-22T15:33:14.534Z,95.40
2018-08-22T15:35:43.881Z,95.50
2018-08-22T15:38:16.336Z,95.60
2018-08-22T15:40:47.149Z,96.00
2018-08-22T15:43:16.660Z,96.00
2018-08-22T15:45:45.937Z,95.90
2018-08-22T15:48:22.941Z,95.80
2018-08-22T15:50:52.206Z,96.00
2018-08-22T15:53:25.357Z,95.50
2018-08-22T15:55:55.114Z,96.00
2018-08-22T15:58:28.330Z,96.30
2018-08-22T16:00:57.728Z,96.10
2018-08-22T16:03:31.503Z,96.30
2018-08-22T16:06:00.794Z,96.40
2018-08-22T16:08:37.349Z,96.70
2018-08-22T16:11:07.941Z,96.80
2018-08-22T16:13:38.357Z,96.40
2018-08-22T16:16:08.584Z,96.50
2018-08-22T16:18:45.267Z,97.10
2018-08-22T16:21:14.495Z,96.70
2018-08-22T16:23:44.889Z,97.50
2018-08-22T16:26:14.379Z,98.20
2018-08-22T16:28:55.441Z,97.80
2018-08-22T16:31:29.773Z,98.10
2018-08-22T16:33:59.131Z,97.70
2018-08-22T16:36:29.236Z,98.00
2018-08-22T16:38:59.515Z,97.60
2018-08-22T16:41:28.751Z,98.30
2018-08-22T16:43:59.176Z,98.30
2018-08-22T16:46:28.705Z,98.90
2018-08-22T16:49:01.914Z,98.80
2018-08-22T16:51:31.090Z,98.60
2018-08-22T16:54:09.190Z,98.30
2018-08-22T16:56:38.708Z,98.60
2018-08-22T16:59:13.852Z,98.60
2018-08-22T17:01:46.707Z,98.30
2018-08-22T17:04:16.474Z,98.10
2018-08-22T17:06:45.968Z,98.40
2018-08-22T17:09:18.612Z,99.10
2018-08-22T17:11:48.263Z,99.20
2018-08-22T17:14:19.147Z,98.90
2018-08-22T17:16:48.452Z,99.80
2018-08-22T17:19:25.715Z,99.40
2018-08-22T17:21:54.923Z,99.20
2018-08-22T17:24:25.160Z,99.30
2018-08-22T17:26:54.843Z,99.90
2018-08-22T17:29:31.967Z,99.90
2018-08-22T17:32:04.470Z,99.90
2018-08-22T17:34:34.099Z,99.90
2018-08-22T17:37:07.663Z,99.90
2018-08-22T17:39:37.242Z,99.90
2018-08-22T17:42:06.570Z,99.90
2018-08-22T17:44:39.445Z,99.90
2018-08-22T17:47:08.999Z,99.90
2018-08-22T17:49:55.861Z,99.90
2018-08-22T17:52:25.416Z,99.90
2018-08-22T17:55:11.530Z,99.90
2018-08-22T17:57:52.153Z,99.90
2018-08-22T18:00:21.778Z,99.90
2018-08-22T18:02:53.693Z,99.90
2018-08-22T18:05:23.062Z,99.90
2018-08-22T18:07:56.374Z,99.90
2018-08-22T18:10:26.075Z,99.90
2018-08-22T18:13:07.695Z,99.90
2018-08-22T18:15:37.244Z,99.90
2018-08-22T18:18:07.740Z,99.90
2018-08-22T18:20:42.160Z,99.90
2018-08-22T18:23:11.909Z,99.90
2018-08-22T18:25:47.528Z,99.90
2018-08-22T18:28:16.969Z,99.90
2018-08-22T18:30:46.900Z,99.90
2018-08-22T18:33:19.122Z,99.90
2018-08-22T18:35:48.727Z,99.90
2018-08-22T18:38:21.836Z,99.90
2018-08-22T18:41:02.349Z,99.90
2018-08-22T18:43:31.738Z,99.90
2018-08-22T18:46:06.420Z,99.90
2018-08-22T18:48:36.220Z,99.90
2018-08-22T18:51:05.623Z,99.90
2018-08-22T18:53:35.258Z,99.90
2018-08-22T18:56:14.268Z,99.90
2018-08-22T18:58:43.706Z,99.90
2018-08-22T19:01:19.283Z,99.90
2018-08-22T19:03:49.164Z,99.90
2018-08-22T19:06:18.597Z,99.90
2018-08-22T19:08:47.840Z,99.90
2018-08-22T19:11:17.695Z,99.90
2018-08-22T19:13:46.996Z,99.90
2018-08-22T19:16:16.368Z,99.90
2018-08-22T19:18:46.135Z,99.90
2018-08-22T19:21:15.862Z,99.90
2018-08-22T19:23:50.270Z,99.90
2018-08-22T19:26:20.264Z,99.90
2018-08-22T19:28:57.479Z,99.90
2018-08-22T19:31:27.214Z,99.90
2018-08-22T19:33:56.426Z,99.90
2018-08-22T19:36:25.696Z,99.90
2018-08-22T19:38:55.199Z,99.90
2018-08-22T19:41:30.967Z,99.90
2018-08-22T19:44:00.189Z,99.90
2018-08-22T19:46:30.572Z,99.90
2018-08-22T19:49:00.776Z,99.90
2018-08-22T19:51:30.508Z,99.90
2018-08-22T19:54:04.753Z,99.90
2018-08-22T19:56:34.207Z,99.90
2018-08-22T19:59:04.332Z,99.90
2018-08-22T20:01:34.901Z,99.90
2018-08-22T20:04:04.177Z,99.90
2018-08-22T20:06:33.506Z,99.90
2018-08-22T20:09:10.264Z,99.90
2018-08-22T20:11:39.772Z,99.90
2018-08-22T20:14:09.053Z,99.90
2018-08-22T20:16:38.836Z,99.90
2018-08-22T20:19:11.158Z,99.90
2018-08-22T20:21:42.072Z,99.90
2018-08-22T20:24:15.187Z,99.90
2018-08-22T20:26:51.499Z,99.90
2018-08-22T20:29:21.714Z,99.90
2018-08-22T20:31:52.136Z,99.90
2018-08-22T20:34:21.402Z,99.90
2018-08-22T20:36:50.653Z,99.90
2018-08-22T20:39:21.166Z,99.90
2018-08-22T20:41:55.948Z,99.90
2018-08-22T20:44:25.164Z,99.90
2018-08-22T20:46:54.697Z,99.90
2018-08-22T20:49:24.235Z,99.90
2018-08-22T20:51:53.532Z,99.90
2018-08-22T20:54:26.732Z,99.90
2018-08-22T20:57:01.218Z,99.90
2018-08-22T20:59:30.842Z,99.90
2018-08-22T21:02:06.215Z,99.90
2018-08-22T21:04:36.768Z,99.90
2018-08-22T21:07:06.422Z,99.90
2018-08-22T21:09:35.747Z,99.90
2018-08-22T21:12:05.431Z,99.90
2018-08-22T21:14:35.621Z,99.90
2018-08-22T21:17:05.084Z,99.90
2018-08-22T21:19:38.438Z,99.90
2018-08-22T21:22:17.451Z,99.90
2018-08-22T21:31:41.102Z,99.90
2018-08-22T21:34:15.423Z,99.90
2018-08-22T21:36:46.584Z,99.90
2018-08-22T21:39:21.058Z,99.90
2018-08-22T21:41:50.467Z,99.90
2018-08-22T21:44:20.995Z,99.90
2018-08-22T21:47:00.667Z,99.90
2018-08-22T21:49:30.444Z,99.90
2018-08-22T21:52:01.052Z,99.90
2018-08-22T21:54:30.884Z,99.90
2018-08-22T21:57:00.675Z,99.90
2018-08-22T21:59:30.012Z,99.90
2018-08-22T22:02:04.760Z,99.90
2018-08-22T22:04:35.057Z,99.90
2018-08-22T22:07:05.343Z,99.90
2018-08-22T22:09:35.405Z,99.90
2018-08-22T22:12:05.300Z,99.90
2018-08-22T22:14:35.637Z,99.90
2018-08-22T22:17:08.787Z,99.90
2018-08-22T22:19:38.040Z,99.90
2018-08-22T22:22:11.213Z,99.90
2018-08-22T22:25:17.370Z,99.90
2018-08-22T22:27:46.892Z,99.90
2018-08-22T22:30:16.417Z,99.90
2018-08-22T22:32:45.695Z,99.90
2018-08-22T22:35:24.855Z,99.90
2018-08-22T22:37:59.525Z,99.90
2018-08-22T22:40:30.356Z,99.90
2018-08-22T22:43:01.018Z,99.90
2018-08-22T22:45:30.246Z,99.90
2018-08-22T22:47:59.621Z,99.90
2018-08-22T22:50:33.179Z,99.90
2018-08-22T22:53:02.536Z,99.90
2018-08-22T22:55:31.787Z,99.90
2018-08-22T22:58:02.904Z,99.90
2018-08-22T23:00:32.419Z,99.90
2018-08-22T23:03:06.653Z,99.90
2018-08-22T23:05:36.671Z,99.90
2018-08-22T23:08:05.875Z,99.90
2018-08-22T23:10:35.100Z,99.90
2018-08-22T23:13:04.623Z,99.90
2018-08-22T23:15:35.558Z,99.90
2018-08-22T23:18:04.859Z,99.90
2018-08-22T23:20:39.763Z,99.90
2018-08-22T23:23:24.943Z,99.90
2018-08-22T23:25:55.434Z,99.90
2018-08-22T23:28:24.643Z,99.90
2018-08-22T23:30:53.869Z,99.90
2018-08-22T23:33:23.546Z,99.90
2018-08-22T23:35:52.774Z,99.90
2018-08-22T23:38:26.930Z,99.90
2018-08-22T23:40:56.631Z,99.90
2018-08-22T23:43:25.938Z,99.90
2018-08-22T23:45:57.940Z,99.90
2018-08-22T23:48:34.669Z,99.90
2018-08-22T23:51:05.319Z,99.90
2018-08-22T23:53:40.201Z,99.90
2018-08-22T23:56:22.340Z,99.90
2018-08-22T23:58:59.263Z,99.90
